sensor_id;sensor_type;location;lat;lon;timestamp;P1;durP1;ratioP1;P2;durP2;ratioP2
18267;SDS011;9260;49.998;19.880;2022-12-05T00:01:53;203.83;;;95.93;;
18267;SDS011;9260;49.998;19.880;2022-12-05T00:11:58;194.73;;;92.57;;
18267;SDS011;9260;49.998;19.880;2022-12-05T00:22:02;197.47;;;91.53;;
18267;SDS011;9260;49.998;19.880;2022-12-05T00:32:07;202.20;;;98.97;;
18267;SDS011;9260;49.998;19.880;2022-12-05T00:42:11;195.37;;;92.17;;
18267;SDS011;9260;49.998;19.880;2022-12-05T00:52:16;196.57;;;96.67;;
18267;SDS011;9260;49.998;19.880;2022-12-05T01:02:21;198.53;;;93.50;;
18267;SDS011;9260;49.998;19.880;2022-12-05T01:12:27;186.33;;;88.37;;
18267;SDS011;9260;49.998;19.880;2022-12-05T01:22:31;197.30;;;96.00;;
18267;SDS011;9260;49.998;19.880;2022-12-05T01:32:36;201.40;;;94.43;;
18267;SDS011;9260;49.998;19.880;2022-12-05T01:42:40;189.57;;;88.50;;
18267;SDS011;9260;49.998;19.880;2022-12-05T01:52:46;189.43;;;93.83;;
18267;SDS011;9260;49.998;19.880;2022-12-05T02:02:51;191.97;;;90.43;;
18267;SDS011;9260;49.998;19.880;2022-12-05T02:13:02;190.83;;;88.80;;
18267;SDS011;9260;49.998;19.880;2022-12-05T02:23:25;195.57;;;93.87;;
18267;SDS011;9260;49.998;19.880;2022-12-05T02:33:45;191.43;;;91.17;;
18267;SDS011;9260;49.998;19.880;2022-12-05T02:43:54;194.57;;;92.97;;
18267;SDS011;9260;49.998;19.880;2022-12-05T02:54:07;189.63;;;86.40;;
18267;SDS011;9260;49.998;19.880;2022-12-05T03:04:16;198.17;;;95.53;;
18267;SDS011;9260;49.998;19.880;2022-12-05T03:14:25;180.87;;;84.63;;
18267;SDS011;9260;49.998;19.880;2022-12-05T03:24:36;187.80;;;89.53;;
18267;SDS011;9260;49.998;19.880;2022-12-05T03:34:48;198.50;;;95.73;;
18267;SDS011;9260;49.998;19.880;2022-12-05T03:45:05;194.70;;;91.60;;
18267;SDS011;9260;49.998;19.880;2022-12-05T03:55:14;191.30;;;90.83;;
18267;SDS011;9260;49.998;19.880;2022-12-05T04:05:20;190.07;;;89.63;;
18267;SDS011;9260;49.998;19.880;2022-12-05T04:15:29;196.03;;;94.10;;
18267;SDS011;9260;49.998;19.880;2022-12-05T04:25:56;191.00;;;92.13;;
18267;SDS011;9260;49.998;19.880;2022-12-05T04:36:09;190.97;;;89.33;;
18267;SDS011;9260;49.998;19.880;2022-12-05T04:46:17;196.93;;;94.90;;
18267;SDS011;9260;49.998;19.880;2022-12-05T04:56:26;191.20;;;91.53;;
18267;SDS011;9260;49.998;19.880;2022-12-05T05:06:35;188.37;;;87.80;;
18267;SDS011;9260;49.998;19.880;2022-12-05T05:16:41;185.30;;;85.83;;
18267;SDS011;9260;49.998;19.880;2022-12-05T05:26:45;192.87;;;89.77;;
18267;SDS011;9260;49.998;19.880;2022-12-05T05:36:58;206.70;;;93.73;;
18267;SDS011;9260;49.998;19.880;2022-12-05T05:47:03;202.70;;;93.50;;
18267;SDS011;9260;49.998;19.880;2022-12-05T05:57:08;202.43;;;95.67;;
18267;SDS011;9260;49.998;19.880;2022-12-05T06:07:19;203.00;;;94.83;;
18267;SDS011;9260;49.998;19.880;2022-12-05T06:17:24;203.83;;;91.03;;
18267;SDS011;9260;49.998;19.880;2022-12-05T06:27:28;199.40;;;92.10;;
18267;SDS011;9260;49.998;19.880;2022-12-05T06:37:35;200.43;;;95.33;;
18267;SDS011;9260;49.998;19.880;2022-12-05T06:47:40;205.70;;;110.30;;
18267;SDS011;9260;49.998;19.880;2022-12-05T06:57:45;206.90;;;100.30;;
18267;SDS011;9260;49.998;19.880;2022-12-05T07:07:49;202.20;;;99.23;;
18267;SDS011;9260;49.998;19.880;2022-12-05T07:17:54;203.33;;;94.80;;
18267;SDS011;9260;49.998;19.880;2022-12-05T07:27:58;216.07;;;105.83;;
18267;SDS011;9260;49.998;19.880;2022-12-05T07:38:03;207.67;;;100.03;;
18267;SDS011;9260;49.998;19.880;2022-12-05T07:48:07;201.70;;;91.90;;
18267;SDS011;9260;49.998;19.880;2022-12-05T08:09:54;206.83;;;90.93;;
18267;SDS011;9260;49.998;19.880;2022-12-05T08:19:58;209.43;;;99.70;;
18267;SDS011;9260;49.998;19.880;2022-12-05T08:30:07;215.13;;;99.20;;
18267;SDS011;9260;49.998;19.880;2022-12-05T08:40:11;211.77;;;96.13;;
18267;SDS011;9260;49.998;19.880;2022-12-05T08:50:16;212.07;;;100.70;;
18267;SDS011;9260;49.998;19.880;2022-12-05T09:00:19;206.53;;;97.30;;
18267;SDS011;9260;49.998;19.880;2022-12-05T09:10:25;226.10;;;104.60;;
18267;SDS011;9260;49.998;19.880;2022-12-05T09:20:29;213.47;;;96.87;;
18267;SDS011;9260;49.998;19.880;2022-12-05T09:30:34;216.67;;;100.70;;
18267;SDS011;9260;49.998;19.880;2022-12-05T09:40:38;214.70;;;101.03;;
18267;SDS011;9260;49.998;19.880;2022-12-05T09:50:47;214.10;;;97.20;;
18267;SDS011;9260;49.998;19.880;2022-12-05T10:00:58;216.03;;;103.37;;
18267;SDS011;9260;49.998;19.880;2022-12-05T10:11:08;213.53;;;99.10;;
18267;SDS011;9260;49.998;19.880;2022-12-05T10:21:21;214.13;;;99.37;;
18267;SDS011;9260;49.998;19.880;2022-12-05T10:31:33;218.77;;;100.83;;
18267;SDS011;9260;49.998;19.880;2022-12-05T10:41:40;215.30;;;102.93;;
18267;SDS011;9260;49.998;19.880;2022-12-05T10:51:45;211.63;;;106.37;;
18267;SDS011;9260;49.998;19.880;2022-12-05T11:01:50;221.43;;;111.80;;
18267;SDS011;9260;49.998;19.880;2022-12-05T11:12:03;222.53;;;109.37;;
18267;SDS011;9260;49.998;19.880;2022-12-05T11:22:17;218.17;;;106.87;;
18267;SDS011;9260;49.998;19.880;2022-12-05T11:32:26;232.40;;;122.47;;
18267;SDS011;9260;49.998;19.880;2022-12-05T11:42:35;218.40;;;112.77;;
18267;SDS011;9260;49.998;19.880;2022-12-05T11:52:56;216.80;;;114.30;;
18267;SDS011;9260;49.998;19.880;2022-12-05T12:14:37;210.20;;;118.57;;
18267;SDS011;9260;49.998;19.880;2022-12-05T12:24:52;210.97;;;119.97;;
18267;SDS011;9260;49.998;19.880;2022-12-05T12:45:46;211.57;;;122.57;;
18267;SDS011;9260;49.998;19.880;2022-12-05T12:56:13;217.37;;;119.97;;
18267;SDS011;9260;49.998;19.880;2022-12-05T13:06:27;225.03;;;115.37;;
18267;SDS011;9260;49.998;19.880;2022-12-05T13:16:38;224.70;;;112.13;;
18267;SDS011;9260;49.998;19.880;2022-12-05T13:26:47;230.83;;;112.17;;
18267;SDS011;9260;49.998;19.880;2022-12-05T13:36:53;209.13;;;103.57;;
18267;SDS011;9260;49.998;19.880;2022-12-05T13:57:50;223.57;;;113.60;;
18267;SDS011;9260;49.998;19.880;2022-12-05T14:07:56;224.50;;;108.37;;
18267;SDS011;9260;49.998;19.880;2022-12-05T14:18:08;228.40;;;111.77;;
18267;SDS011;9260;49.998;19.880;2022-12-05T14:28:19;217.13;;;104.80;;
18267;SDS011;9260;49.998;19.880;2022-12-05T14:38:40;219.20;;;98.90;;
18267;SDS011;9260;49.998;19.880;2022-12-05T14:48:46;218.53;;;97.80;;
18267;SDS011;9260;49.998;19.880;2022-12-05T14:58:52;215.00;;;99.63;;
18267;SDS011;9260;49.998;19.880;2022-12-05T15:09:00;209.93;;;94.70;;
18267;SDS011;9260;49.998;19.880;2022-12-05T15:19:30;262.07;;;123.77;;
18267;SDS011;9260;49.998;19.880;2022-12-05T15:29:51;263.83;;;119.37;;
18267;SDS011;9260;49.998;19.880;2022-12-05T15:39:59;262.00;;;121.07;;
18267;SDS011;9260;49.998;19.880;2022-12-05T15:50:11;258.83;;;121.30;;
18267;SDS011;9260;49.998;19.880;2022-12-05T16:00:18;258.07;;;120.40;;
18267;SDS011;9260;49.998;19.880;2022-12-05T16:10:22;257.43;;;117.80;;
18267;SDS011;9260;49.998;19.880;2022-12-05T16:20:32;249.13;;;116.70;;
18267;SDS011;9260;49.998;19.880;2022-12-05T16:30:38;246.23;;;123.37;;
18267;SDS011;9260;49.998;19.880;2022-12-05T16:40:50;249.73;;;113.70;;
18267;SDS011;9260;49.998;19.880;2022-12-05T17:01:23;251.73;;;129.63;;
18267;SDS011;9260;49.998;19.880;2022-12-05T17:11:30;244.13;;;119.73;;
18267;SDS011;9260;49.998;19.880;2022-12-05T17:21:39;242.10;;;110.90;;
18267;SDS011;9260;49.998;19.880;2022-12-05T17:31:45;251.93;;;120.40;;
18267;SDS011;9260;49.998;19.880;2022-12-05T17:41:50;242.47;;;113.17;;
18267;SDS011;9260;49.998;19.880;2022-12-05T17:51:54;254.50;;;118.37;;
18267;SDS011;9260;49.998;19.880;2022-12-05T18:02:20;245.93;;;115.77;;
18267;SDS011;9260;49.998;19.880;2022-12-05T18:12:24;258.03;;;121.37;;
18267;SDS011;9260;49.998;19.880;2022-12-05T18:22:29;264.97;;;122.67;;
18267;SDS011;9260;49.998;19.880;2022-12-05T18:32:33;262.43;;;118.93;;
18267;SDS011;9260;49.998;19.880;2022-12-05T18:42:38;280.10;;;130.23;;
18267;SDS011;9260;49.998;19.880;2022-12-05T18:52:42;263.83;;;124.47;;
18267;SDS011;9260;49.998;19.880;2022-12-05T19:02:48;274.70;;;131.83;;
18267;SDS011;9260;49.998;19.880;2022-12-05T19:12:52;282.80;;;130.90;;
18267;SDS011;9260;49.998;19.880;2022-12-05T19:22:58;269.83;;;125.93;;
18267;SDS011;9260;49.998;19.880;2022-12-05T19:33:01;281.83;;;131.30;;
18267;SDS011;9260;49.998;19.880;2022-12-05T19:43:07;284.70;;;135.20;;
18267;SDS011;9260;49.998;19.880;2022-12-05T19:53:11;300.10;;;157.43;;
18267;SDS011;9260;49.998;19.880;2022-12-05T20:03:16;289.10;;;137.07;;
18267;SDS011;9260;49.998;19.880;2022-12-05T20:13:22;303.33;;;146.70;;
18267;SDS011;9260;49.998;19.880;2022-12-05T20:23:47;305.93;;;147.83;;
18267;SDS011;9260;49.998;19.880;2022-12-05T20:33:51;298.43;;;142.33;;
18267;SDS011;9260;49.998;19.880;2022-12-05T20:43:59;283.37;;;136.43;;
18267;SDS011;9260;49.998;19.880;2022-12-05T20:54:04;300.10;;;139.57;;
18267;SDS011;9260;49.998;19.880;2022-12-05T21:04:10;311.57;;;149.70;;
18267;SDS011;9260;49.998;19.880;2022-12-05T21:14:14;296.97;;;142.60;;
18267;SDS011;9260;49.998;19.880;2022-12-05T21:24:19;293.07;;;139.87;;
18267;SDS011;9260;49.998;19.880;2022-12-05T21:34:24;294.37;;;136.63;;
18267;SDS011;9260;49.998;19.880;2022-12-05T21:44:29;304.20;;;147.53;;
18267;SDS011;9260;49.998;19.880;2022-12-05T21:54:33;305.37;;;146.57;;
18267;SDS011;9260;49.998;19.880;2022-12-05T22:04:38;303.60;;;145.07;;
18267;SDS011;9260;49.998;19.880;2022-12-05T22:14:42;294.73;;;133.83;;
18267;SDS011;9260;49.998;19.880;2022-12-05T22:24:47;306.00;;;141.10;;
18267;SDS011;9260;49.998;19.880;2022-12-05T22:34:51;297.13;;;144.80;;
18267;SDS011;9260;49.998;19.880;2022-12-05T22:45:04;314.47;;;149.07;;
18267;SDS011;9260;49.998;19.880;2022-12-05T22:55:09;305.10;;;144.93;;
18267;SDS011;9260;49.998;19.880;2022-12-05T23:05:14;313.13;;;151.00;;
18267;SDS011;9260;49.998;19.880;2022-12-05T23:15:18;300.43;;;141.90;;
18267;SDS011;9260;49.998;19.880;2022-12-05T23:25:23;307.63;;;145.97;;
18267;SDS011;9260;49.998;19.880;2022-12-05T23:35:27;306.37;;;146.23;;
18267;SDS011;9260;49.998;19.880;2022-12-05T23:45:33;304.60;;;144.80;;
18267;SDS011;9260;49.998;19.880;2022-12-05T23:55:37;310.33;;;143.57;;
